Time;durP1;ratioP1;P1;durP2;ratioP2;P2;SDS_P1;SDS_P2;PMS_P1;PMS_P2;Temp;Humidity;BMP_temperature;BMP_pressure;BME280_temperature;BME280_humidity;BME280_pressure;Samples;Min_cycle;Max_cycle;Signal;HPM_P1;HPM_P2
2024/04/18 00:01:50;;;;;;;2.50;1.33;;;7.10;99.90;;;;;;4180159;28;20720;-95
2024/04/18 00:03:51;;;;;;;3.57;1.63;;;6.80;99.90;;;;;;4205733;28;20265;-93
2024/04/18 00:05:52;;;;;;;4.20;1.30;;;6.40;99.90;;;;;;4181429;28;20244;-95
2024/04/18 00:07:54;;;;;;;1.63;1.00;;;6.30;99.90;;;;;;4182287;28;20317;-95
2024/04/18 00:09:55;;;;;;;2.83;1.33;;;6.50;99.90;;;;;;4181022;28;20240;-94
2024/04/18 00:12:05;;;;;;;2.43;1.20;;;6.40;99.90;;;;;;4182024;28;20748;-95
2024/04/18 00:14:25;;;;;;;3.43;1.60;;;6.40;99.90;;;;;;4209311;28;20604;-94
2024/04/18 00:16:45;;;;;;;1.70;1.10;;;6.40;99.90;;;;;;4206616;28;20282;-96
2024/04/18 00:18:49;;;;;;;2.07;1.10;;;6.30;99.90;;;;;;4180705;28;20618;-95
2024/04/18 00:20:59;;;;;;;2.40;1.27;;;6.30;99.90;;;;;;4205791;28;20239;-95
2024/04/18 00:23:00;;;;;;;1.67;0.90;;;6.20;99.90;;;;;;4181151;28;20267;-96
2024/04/18 00:25:06;;;;;;;2.60;1.13;;;6.00;99.90;;;;;;4180339;28;20237;-95
2024/04/18 00:27:27;;;;;;;1.33;0.57;;;6.10;99.90;;;;;;4209903;28;20283;-96
2024/04/18 00:29:28;;;;;;;2.20;1.10;;;6.10;99.90;;;;;;4154782;28;20280;-95
2024/04/18 00:31:42;;;;;;;1.67;1.10;;;6.10;99.90;;;;;;4205863;28;20279;-96
2024/04/18 00:34:04;;;;;;;1.20;0.90;;;6.10;99.90;;;;;;4209185;28;20239;-96
2024/04/18 00:36:18;;;;;;;2.30;1.00;;;6.10;99.90;;;;;;4183013;28;20299;-95
2024/04/18 00:38:22;;;;;;;5.83;0.93;;;5.90;99.90;;;;;;4180288;28;20232;-96
2024/04/18 00:40:28;;;;;;;1.00;0.63;;;5.80;99.90;;;;;;4205791;28;20220;-95
2024/04/18 00:42:29;;;;;;;1.40;0.70;;;5.80;99.90;;;;;;4182655;28;20236;-96
2024/04/18 00:44:38;;;;;;;5.30;0.87;;;5.70;99.90;;;;;;4183416;28;20247;-95
2024/04/18 00:46:47;;;;;;;1.00;0.63;;;5.80;99.90;;;;;;4180850;28;20278;-95
2024/04/18 00:49:05;;;;;;;1.43;0.93;;;5.80;99.90;;;;;;4205899;28;20265;-95
2024/04/18 00:51:26;;;;;;;1.13;0.80;;;5.80;99.90;;;;;;4205423;28;20235;-94
2024/04/18 00:53:29;;;;;;;1.33;0.50;;;5.80;99.90;;;;;;4179936;28;20236;-95
2024/04/18 00:55:52;;;;;;;2.73;1.20;;;5.60;99.90;;;;;;4205724;28;20243;-96
2024/04/18 00:57:53;;;;;;;1.50;0.83;;;5.50;99.90;;;;;;4179598;28;20240;-95
2024/04/18 00:59:55;;;;;;;0.93;0.73;;;5.40;99.90;;;;;;4154371;28;20249;-95
2024/04/18 01:01:56;;;;;;;1.93;0.80;;;5.30;99.90;;;;;;4179663;28;20272;-95
2024/04/18 01:04:12;;;;;;;1.40;0.80;;;5.20;99.90;;;;;;4182624;28;20255;-95
2024/04/18 01:06:13;;;;;;;2.20;1.00;;;5.40;99.90;;;;;;4180241;28;20668;-96
2024/04/18 01:08:32;;;;;;;1.37;0.70;;;5.40;99.90;;;;;;4205696;28;20262;-95
2024/04/18 01:10:33;;;;;;;1.77;0.80;;;5.50;99.90;;;;;;4179312;28;20613;-95
2024/04/18 01:12:35;;;;;;;1.20;0.93;;;5.40;99.90;;;;;;4205503;28;20354;-95
2024/04/18 01:14:36;;;;;;;1.87;0.87;;;5.50;99.90;;;;;;4231559;27;20291;-95
2024/04/18 01:16:37;;;;;;;0.83;0.60;;;5.50;99.90;;;;;;4179497;28;20720;-95
2024/04/18 01:18:38;;;;;;;4.70;0.60;;;5.60;99.90;;;;;;4204996;28;20235;-95
2024/04/18 01:20:48;;;;;;;4.20;0.63;;;5.50;99.90;;;;;;4183029;28;20634;-95
2024/04/18 01:22:51;;;;;;;1.70;0.60;;;5.20;99.90;;;;;;4179971;28;20237;-95
2024/04/18 01:25:11;;;;;;;1.37;0.83;;;5.20;99.90;;;;;;4205268;28;20772;-95
2024/04/18 01:27:12;;;;;;;1.57;0.80;;;5.30;99.90;;;;;;4179182;28;20276;-95
2024/04/18 01:29:16;;;;;;;1.93;0.70;;;5.30;99.90;;;;;;4179497;28;20240;-95
2024/04/18 01:31:36;;;;;;;0.40;0.40;;;5.30;99.90;;;;;;4205386;28;20335;-95
2024/04/18 01:33:37;;;;;;;0.70;0.47;;;5.40;99.90;;;;;;4179055;28;20726;-94
2024/04/18 01:35:38;;;;;;;1.13;0.67;;;5.40;99.90;;;;;;4180213;28;20642;-96
2024/04/18 01:37:53;;;;;;;4.17;0.60;;;5.40;99.90;;;;;;4181983;28;20275;-95
2024/04/18 01:39:54;;;;;;;2.30;0.67;;;5.30;99.90;;;;;;4179344;28;20248;-94
2024/04/18 01:41:55;;;;;;;2.30;0.77;;;5.40;99.90;;;;;;4181204;28;20266;-95
2024/04/18 01:44:14;;;;;;;1.13;0.57;;;5.50;99.90;;;;;;4205187;28;20634;-95
2024/04/18 01:46:34;;;;;;;2.30;1.00;;;5.60;99.90;;;;;;4205092;28;20818;-96
2024/04/18 01:48:35;;;;;;;1.13;0.83;;;5.70;99.90;;;;;;4179035;28;20276;-95
2024/04/18 01:50:51;;;;;;;2.10;0.70;;;5.80;99.90;;;;;;4181958;28;20263;-95
2024/04/18 01:53:05;;;;;;;1.20;0.70;;;5.80;99.90;;;;;;4183297;28;20289;-96
2024/04/18 01:55:12;;;;;;;1.70;0.70;;;5.90;99.90;;;;;;4182850;28;20270;-96
2024/04/18 01:57:13;;;;;;;1.37;0.80;;;5.90;99.90;;;;;;4183574;28;20232;-95
2024/04/18 01:59:47;;;;;;;2.07;0.97;;;5.90;99.90;;;;;;4209020;28;20308;-95
2024/04/18 02:01:51;;;;;;;1.50;0.60;;;5.90;99.90;;;;;;4181705;28;20729;-96
2024/04/18 02:03:52;;;;;;;1.10;0.87;;;5.90;99.90;;;;;;4181319;28;20556;-95
2024/04/18 02:05:53;;;;;;;1.00;0.70;;;5.80;99.90;;;;;;4206936;28;20281;-96
2024/04/18 02:10:44;;;;;;;1.83;0.77;;;5.80;99.90;;;;;;4232753;28;20314;-95
2024/04/18 02:13:05;;;;;;;0.93;0.60;;;5.80;99.90;;;;;;4234516;27;20222;-95
2024/04/18 02:15:18;;;;;;;1.00;0.67;;;5.70;99.90;;;;;;4210207;27;20239;-95
2024/04/18 02:17:39;;;;;;;2.23;0.60;;;5.60;99.90;;;;;;4233472;28;20294;-95
2024/04/18 02:19:42;;;;;;;1.40;0.67;;;5.60;99.90;;;;;;4207911;27;20291;-95
2024/04/18 02:22:03;;;;;;;3.50;0.80;;;5.40;99.90;;;;;;4234457;28;20257;-95
2024/04/18 02:24:07;;;;;;;0.80;0.43;;;5.40;99.90;;;;;;4209203;28;20239;-95
2024/04/18 02:26:08;;;;;;;2.07;1.00;;;5.30;99.90;;;;;;4233841;28;20285;-95
2024/04/18 02:28:09;;;;;;;1.13;0.93;;;5.30;99.90;;;;;;4233374;28;20281;-96
2024/04/18 02:30:11;;;;;;;1.60;0.80;;;5.20;99.90;;;;;;4207387;28;20235;-95
2024/04/18 02:32:12;;;;;;;1.27;0.77;;;5.20;99.90;;;;;;4207558;28;20270;-95
2024/04/18 02:34:13;;;;;;;1.70;0.67;;;5.20;99.90;;;;;;4208389;28;20227;-95
2024/04/18 02:36:25;;;;;;;0.97;0.67;;;5.20;99.90;;;;;;4209870;28;20298;-95
2024/04/18 02:38:27;;;;;;;1.37;0.93;;;5.30;99.90;;;;;;4233273;28;20278;-95
2024/04/18 02:40:28;;;;;;;1.63;0.80;;;5.30;99.90;;;;;;4233114;28;20265;-95
2024/04/18 02:42:34;;;;;;;1.30;0.70;;;5.40;99.90;;;;;;4208104;28;20814;-94
2024/04/18 02:44:35;;;;;;;1.27;0.80;;;5.30;99.90;;;;;;4208853;28;20235;-96
2024/04/18 02:46:36;;;;;;;0.97;0.70;;;5.30;99.90;;;;;;4206810;28;20293;-96
2024/04/18 02:48:49;;;;;;;0.93;0.70;;;5.10;99.90;;;;;;4259338;27;20242;-96
2024/04/18 02:50:59;;;;;;;1.50;0.87;;;5.00;99.90;;;;;;4208742;27;20230;-95
2024/04/18 02:53:00;;;;;;;1.43;0.73;;;5.10;99.90;;;;;;4232812;28;20742;-96
2024/04/18 02:55:01;;;;;;;1.10;0.60;;;5.10;99.90;;;;;;4233687;27;20728;-96
2024/04/18 02:57:07;;;;;;;2.53;1.10;;;5.20;99.90;;;;;;4232887;27;20277;-95
2024/04/18 02:59:11;;;;;;;1.10;0.70;;;5.30;99.90;;;;;;4232768;28;20700;-95
2024/04/18 03:01:24;;;;;;;1.37;0.63;;;5.30;99.90;;;;;;4209239;28;20767;-95
2024/04/18 03:03:25;;;;;;;2.73;1.00;;;5.30;99.90;;;;;;4233401;27;20241;-95
2024/04/18 03:05:37;;;;;;;3.27;1.07;;;5.30;99.90;;;;;;4209455;28;20250;-95
2024/04/18 03:07:38;;;;;;;0.93;0.70;;;5.40;99.90;;;;;;4206486;28;20371;-95
2024/04/18 03:09:41;;;;;;;2.30;1.00;;;5.40;99.90;;;;;;4207306;28;20247;-95
2024/04/18 03:11:59;;;;;;;3.77;1.10;;;5.40;99.90;;;;;;4210448;28;20236;-95
2024/04/18 03:14:15;;;;;;;3.47;1.37;;;5.50;99.90;;;;;;4235149;28;20238;-95
2024/04/18 03:16:19;;;;;;;2.57;1.10;;;5.60;99.90;;;;;;4258943;27;20245;-94
2024/04/18 03:18:20;;;;;;;2.33;1.40;;;5.50;99.90;;;;;;4259303;27;20735;-95
2024/04/18 03:20:40;;;;;;;1.87;1.23;;;5.50;99.90;;;;;;4211548;28;20231;-96
2024/04/18 03:22:41;;;;;;;1.63;0.97;;;5.50;99.90;;;;;;4232754;28;20277;-96
2024/04/18 03:24:44;;;;;;;2.43;1.30;;;5.50;99.90;;;;;;4232805;28;20259;-95
2024/04/18 03:27:04;;;;;;;1.90;1.30;;;5.50;99.90;;;;;;4209481;28;20243;-95
2024/04/18 03:29:05;;;;;;;2.40;1.30;;;5.50;99.90;;;;;;4206885;28;20239;-94
2024/04/18 03:31:26;;;;;;;2.27;1.40;;;5.50;99.90;;;;;;4233087;28;20238;-95
2024/04/18 03:33:30;;;;;;;3.10;1.53;;;5.50;99.90;;;;;;4207943;28;20247;-94
2024/04/18 03:35:31;;;;;;;2.77;1.47;;;5.50;99.90;;;;;;4234067;27;20763;-95
2024/04/18 03:37:49;;;;;;;2.13;1.40;;;5.50;99.90;;;;;;4211975;28;20242;-96
2024/04/18 03:40:05;;;;;;;2.43;1.13;;;5.50;99.90;;;;;;4232066;28;20264;-95
2024/04/18 03:42:09;;;;;;;2.23;1.40;;;5.50;99.90;;;;;;4232251;28;20735;-95
2024/04/18 03:44:28;;;;;;;1.70;1.07;;;5.40;99.90;;;;;;4209735;28;20239;-95
2024/04/18 03:46:29;;;;;;;5.10;1.33;;;5.30;99.90;;;;;;4205996;28;20247;-95
2024/04/18 03:48:34;;;;;;;2.57;1.47;;;5.30;99.90;;;;;;4207639;27;20324;-95
2024/04/18 03:50:35;;;;;;;2.67;1.60;;;5.40;99.90;;;;;;4234370;28;20234;-95
2024/04/18 03:52:55;;;;;;;2.33;1.63;;;5.40;99.90;;;;;;4209440;28;20751;-95
2024/04/18 03:55:14;;;;;;;2.27;1.60;;;5.20;99.90;;;;;;4233247;27;20315;-94
2024/04/18 03:57:15;;;;;;;2.60;1.40;;;4.80;99.90;;;;;;4232064;28;20285;-95
2024/04/18 03:59:30;;;;;;;5.00;2.43;;;4.80;99.90;;;;;;4210637;28;20251;-94
2024/04/18 04:01:31;;;;;;;4.57;2.33;;;4.90;99.90;;;;;;4207015;28;20274;-96
2024/04/18 04:03:32;;;;;;;4.43;2.10;;;5.10;99.90;;;;;;4234228;28;20330;-95
2024/04/18 04:05:33;;;;;;;4.57;2.13;;;5.20;99.90;;;;;;4206050;28;20592;-96
2024/04/18 04:07:34;;;;;;;4.27;2.40;;;5.20;99.90;;;;;;4206262;28;20274;-95
2024/04/18 04:09:35;;;;;;;3.43;2.20;;;5.40;99.90;;;;;;4233387;28;20675;-96
2024/04/18 04:11:36;;;;;;;4.33;2.03;;;5.40;99.90;;;;;;4206268;28;20697;-95
2024/04/18 04:13:37;;;;;;;4.50;2.40;;;5.50;99.90;;;;;;4232155;28;20234;-96
2024/04/18 04:15:54;;;;;;;2.90;2.00;;;5.60;99.90;;;;;;4208101;28;20251;-96
2024/04/18 04:18:17;;;;;;;3.80;1.90;;;5.60;99.90;;;;;;4232253;28;20230;-95
2024/04/18 04:20:26;;;;;;;3.03;2.30;;;5.70;99.90;;;;;;4233680;28;20234;-95
2024/04/18 04:22:27;;;;;;;3.30;1.83;;;5.70;99.90;;;;;;4234440;28;20303;-95
2024/04/18 04:24:28;;;;;;;3.07;1.50;;;5.60;99.90;;;;;;4205839;28;20239;-96
2024/04/18 04:26:49;;;;;;;3.33;1.70;;;5.70;99.90;;;;;;4232015;28;20238;-95
2024/04/18 04:28:53;;;;;;;4.13;2.53;;;5.70;99.90;;;;;;4207413;28;20286;-95
2024/04/18 04:30:53;;;;;;;3.00;1.63;;;5.70;99.90;;;;;;4206444;28;20236;-96
2024/04/18 04:33:00;;;;;;;4.20;2.63;;;5.70;99.90;;;;;;4232163;27;20237;-95
2024/04/18 04:35:09;;;;;;;4.27;1.93;;;5.70;99.90;;;;;;4206912;28;20235;-95
2024/04/18 04:37:11;;;;;;;4.10;2.27;;;5.70;99.90;;;;;;4180602;28;20761;-96
2024/04/18 04:39:11;;;;;;;4.33;2.17;;;5.80;99.90;;;;;;4206182;28;20231;-95
2024/04/18 04:41:16;;;;;;;6.20;2.10;;;5.80;99.90;;;;;;4234529;28;20242;-95
2024/04/18 04:43:17;;;;;;;4.63;2.17;;;5.80;99.90;;;;;;4206379;28;20235;-95
2024/04/18 04:45:18;;;;;;;3.83;2.20;;;5.80;99.90;;;;;;4205654;28;20239;-95
2024/04/18 04:47:38;;;;;;;3.77;1.90;;;5.70;99.90;;;;;;4210755;27;20604;-95
2024/04/18 04:50:08;;;;;;;4.53;2.17;;;5.80;99.90;;;;;;4240043;27;20264;-96
2024/04/18 04:52:10;;;;;;;5.70;2.37;;;5.80;99.90;;;;;;4208423;28;20235;-96
2024/04/18 04:54:14;;;;;;;5.17;2.10;;;5.90;99.90;;;;;;4206188;28;20235;-95
2024/04/18 04:56:15;;;;;;;3.53;2.37;;;6.00;99.90;;;;;;4205342;28;20285;-95
2024/04/18 04:58:35;;;;;;;5.10;2.87;;;6.00;99.90;;;;;;4231712;28;20230;-96
2024/04/18 05:00:36;;;;;;;5.17;2.43;;;6.00;99.90;;;;;;4207083;28;20265;-95
2024/04/18 05:02:37;;;;;;;7.90;2.20;;;6.00;99.90;;;;;;4205486;28;20235;-96
2024/04/18 05:04:52;;;;;;;4.30;2.27;;;6.10;99.90;;;;;;4231785;28;20242;-95
2024/04/18 05:07:05;;;;;;;4.47;2.23;;;6.10;99.90;;;;;;4207736;28;20263;-95
2024/04/18 05:09:07;;;;;;;5.07;2.80;;;6.10;99.90;;;;;;4205446;28;20312;-95
2024/04/18 05:11:08;;;;;;;5.20;2.70;;;6.20;99.90;;;;;;4205315;28;20235;-96
2024/04/18 05:13:11;;;;;;;3.30;2.67;;;6.20;99.90;;;;;;4207016;28;20235;-96
2024/04/18 05:15:11;;;;;;;12.20;2.90;;;6.30;99.90;;;;;;4231302;27;20238;-96
2024/04/18 05:17:31;;;;;;;3.80;2.37;;;6.30;99.90;;;;;;4233567;28;20335;-96
2024/04/18 05:19:47;;;;;;;5.10;2.93;;;6.30;99.90;;;;;;4208238;27;20717;-95
2024/04/18 05:22:08;;;;;;;4.33;2.20;;;6.20;99.90;;;;;;4231595;28;20226;-96
2024/04/18 05:24:09;;;;;;;6.20;2.80;;;6.20;99.90;;;;;;4206264;28;20247;-95
2024/04/18 05:26:11;;;;;;;4.97;2.50;;;6.30;99.90;;;;;;4205328;28;20255;-95
2024/04/18 05:28:14;;;;;;;4.00;2.27;;;6.20;99.90;;;;;;4232174;28;20246;-95
2024/04/18 05:32:34;;;;;;;5.17;2.50;;;6.40;99.90;;;;;;4233948;28;20234;-95
2024/04/18 09:30:19;;;;;;;4.50;0.73;;;15.90;99.90;;;;;;5238393;22;20289;31
2024/04/18 14:41:55;;;;;;;0.30;0.10;;;14.20;99.90;;;;;;4361867;22;20772;-89
2024/04/18 14:43:56;;;;;;;0.28;0.20;;;14.10;99.90;;;;;;4259816;27;20233;-92
2024/04/18 14:45:57;;;;;;;0.90;0.32;;;14.00;99.90;;;;;;4269061;27;20258;-88
2024/04/18 14:48:17;;;;;;;1.92;0.10;;;14.30;99.90;;;;;;4315188;27;20239;-89
2024/04/18 14:50:18;;;;;;;0.20;0.20;;;13.70;99.90;;;;;;4256875;27;20233;-88
2024/04/18 14:52:19;;;;;;;0.30;0.10;;;13.80;99.90;;;;;;4304400;27;20231;-89
2024/04/18 14:54:20;;;;;;;1.00;0.20;;;13.60;99.90;;;;;;4233156;28;20348;-89
2024/04/18 14:56:20;;;;;;;1.48;0.20;;;12.90;99.90;;;;;;4248571;27;20260;-89
2024/04/18 14:58:33;;;;;;;0.43;0.25;;;12.90;99.90;;;;;;4240625;27;20248;-92
2024/04/18 15:00:53;;;;;;;0.60;0.30;;;12.90;99.90;;;;;;4262880;27;20294;-89
2024/04/18 15:02:54;;;;;;;0.47;0.10;;;13.20;99.90;;;;;;4259045;27;20233;-89
2024/04/18 15:05:14;;;;;;;0.17;0.15;;;13.50;99.90;;;;;;4290295;27;20271;-88
2024/04/18 15:07:35;;;;;;;0.80;0.40;;;13.40;99.90;;;;;;4259232;27;20245;-89
2024/04/18 15:09:50;;;;;;;0.40;0.28;;;13.40;99.90;;;;;;4286529;27;20228;-93
2024/04/18 15:11:51;;;;;;;1.38;0.40;;;13.40;99.90;;;;;;4259517;27;20589;-94
2024/04/18 15:13:52;;;;;;;0.75;0.20;;;13.30;99.90;;;;;;4259384;27;20741;-89
2024/04/18 15:15:58;;;;;;;0.75;0.17;;;13.70;99.90;;;;;;4233893;27;20277;-93
2024/04/18 15:17:59;;;;;;;0.63;0.17;;;14.00;99.90;;;;;;4259114;27;20323;-93
2024/04/18 15:20:06;;;;;;;2.08;0.35;;;14.30;99.90;;;;;;4259026;27;20332;-90
2024/04/18 15:22:09;;;;;;;0.95;0.15;;;14.70;99.90;;;;;;4259705;27;20237;-96
2024/04/18 15:24:18;;;;;;;0.50;0.15;;;15.00;99.90;;;;;;4259159;27;20256;-94
2024/04/18 15:26:34;;;;;;;1.13;0.30;;;15.20;99.90;;;;;;4235715;27;20285;-89
2024/04/18 15:28:35;;;;;;;0.93;0.28;;;15.00;99.90;;;;;;4259030;27;20264;-95
2024/04/18 15:30:45;;;;;;;0.28;0.20;;;15.20;99.90;;;;;;4259138;27;20263;-94
2024/04/18 15:32:54;;;;;;;0.65;0.28;;;14.80;99.90;;;;;;4285881;27;20262;-88
2024/04/18 15:34:55;;;;;;;1.52;0.50;;;15.00;99.90;;;;;;4271225;27;20244;-91
2024/04/18 15:37:31;;;;;;;2.40;0.68;;;15.00;99.90;;;;;;4266747;27;20305;-89
2024/04/18 15:39:32;;;;;;;0.40;0.30;;;14.40;99.90;;;;;;4277738;27;20270;-89
2024/04/18 15:41:53;;;;;;;2.78;0.40;;;14.50;99.90;;;;;;4277459;27;20252;-90
2024/04/18 15:43:54;;;;;;;1.60;0.30;;;14.70;99.90;;;;;;4281936;27;20244;-90
2024/04/18 15:46:10;;;;;;;2.45;0.30;;;14.90;99.90;;;;;;4259829;27;20249;-92
2024/04/18 15:48:11;;;;;;;2.03;0.38;;;14.70;99.90;;;;;;4281305;27;20240;-91
2024/04/18 15:50:26;;;;;;;2.13;0.20;;;14.70;99.90;;;;;;4264359;27;20236;-91
2024/04/18 15:52:29;;;;;;;0.25;0.25;;;14.90;99.90;;;;;;4261648;27;20621;-91
2024/04/18 15:54:31;;;;;;;0.40;0.30;;;14.90;99.90;;;;;;4287863;27;20697;-90
2024/04/18 15:56:32;;;;;;;2.20;0.43;;;14.90;99.90;;;;;;4269020;27;20275;-91
2024/04/18 15:58:33;;;;;;;1.65;0.40;;;14.70;99.90;;;;;;4239867;28;20238;-90
2024/04/18 16:00:48;;;;;;;2.05;0.30;;;14.70;99.90;;;;;;4290388;27;20336;-91
2024/04/18 16:03:07;;;;;;;0.50;0.20;;;14.60;99.90;;;;;;4267718;27;20277;-90
2024/04/18 16:05:26;;;;;;;2.47;0.38;;;13.80;99.90;;;;;;4270731;27;20298;-92
2024/04/18 16:07:42;;;;;;;0.75;0.20;;;13.70;99.90;;;;;;4267987;27;20264;-90
2024/04/18 16:10:03;;;;;;;2.28;0.30;;;13.80;99.90;;;;;;4270748;27;20316;-91
2024/04/18 16:12:04;;;;;;;1.30;0.40;;;13.90;99.90;;;;;;4240516;28;20278;-90
2024/04/18 16:14:05;;;;;;;1.17;0.43;;;13.70;99.90;;;;;;4290526;27;20232;-90
2024/04/18 16:16:06;;;;;;;0.50;0.30;;;13.80;99.90;;;;;;4264124;27;20332;-90
2024/04/18 16:18:10;;;;;;;0.40;0.30;;;14.30;99.90;;;;;;4264535;27;20236;-89
2024/04/18 16:20:25;;;;;;;0.77;0.30;;;14.30;99.90;;;;;;4265423;27;20214;-90
2024/04/18 16:22:28;;;;;;;0.45;0.30;;;14.20;99.90;;;;;;4236728;28;20276;-91
2024/04/18 16:24:28;;;;;;;1.65;0.20;;;14.20;99.90;;;;;;4303641;27;20212;-90
2024/04/18 16:26:29;;;;;;;4.28;0.60;;;14.10;99.90;;;;;;4264150;27;20279;-90
2024/04/18 16:28:37;;;;;;;0.43;0.30;;;14.10;99.90;;;;;;4264868;27;20237;-91
2024/04/18 16:30:41;;;;;;;1.23;0.40;;;14.20;99.90;;;;;;4294373;27;20311;-90
2024/04/18 16:32:47;;;;;;;0.82;0.38;;;14.10;99.90;;;;;;4297114;27;20279;-91
2024/04/18 16:34:48;;;;;;;4.30;1.05;;;13.70;99.90;;;;;;4244752;28;20256;-90
2024/04/18 16:36:50;;;;;;;1.58;0.25;;;13.70;99.90;;;;;;4260402;27;20257;-91
2024/04/18 16:38:54;;;;;;;2.33;0.40;;;13.90;99.90;;;;;;4236261;28;20229;-91
2024/04/18 16:40:58;;;;;;;0.65;0.10;;;14.00;99.90;;;;;;4267824;27;20328;-90
2024/04/18 16:43:07;;;;;;;1.00;0.60;;;14.00;99.90;;;;;;4270080;27;20281;-89
2024/04/18 16:45:27;;;;;;;0.28;0.20;;;14.00;99.90;;;;;;4267315;27;20300;-91
2024/04/18 16:47:28;;;;;;;2.08;0.40;;;13.70;99.90;;;;;;4261862;27;20225;-91
2024/04/18 16:49:29;;;;;;;3.22;0.60;;;13.70;99.90;;;;;;4264461;27;20244;-91
2024/04/18 16:51:30;;;;;;;2.47;0.55;;;13.60;99.90;;;;;;4288593;27;20729;-91
2024/04/18 16:53:30;;;;;;;1.23;0.30;;;13.90;99.90;;;;;;4261976;27;20252;-90
2024/04/18 16:55:47;;;;;;;0.43;0.20;;;14.00;99.90;;;;;;4263946;27;20245;-90
2024/04/18 16:57:48;;;;;;;3.15;0.35;;;13.80;99.90;;;;;;4233252;28;20338;-90
2024/04/18 16:59:55;;;;;;;0.75;0.35;;;13.50;99.90;;;;;;4234767;27;20237;-90
2024/04/18 17:01:56;;;;;;;5.63;0.85;;;13.60;99.90;;;;;;4259902;27;20267;-91
2024/04/18 17:03:57;;;;;;;3.35;0.50;;;13.40;99.90;;;;;;4237195;28;20246;-91
2024/04/18 17:06:05;;;;;;;8.98;0.60;;;13.50;99.90;;;;;;4235514;27;20277;-91
2024/04/18 17:08:08;;;;;;;0.43;0.30;;;13.50;99.90;;;;;;4261750;27;20911;-90
2024/04/18 17:10:12;;;;;;;7.05;0.45;;;13.10;99.90;;;;;;4235461;27;20246;-90
2024/04/18 17:12:33;;;;;;;0.90;0.50;;;13.00;99.90;;;;;;4265590;27;20268;-90
2024/04/18 17:15:08;;;;;;;2.13;0.77;;;13.00;99.90;;;;;;4269504;27;20267;-90
2024/04/18 17:17:11;;;;;;;12.85;3.03;;;13.00;99.90;;;;;;4261582;27;20253;-90
2024/04/18 17:19:30;;;;;;;0.10;0.10;;;13.00;99.90;;;;;;4267288;27;20233;-92
2024/04/18 17:21:31;;;;;;;3.17;1.00;;;13.20;99.90;;;;;;4249867;27;20741;-92
2024/04/18 17:23:32;;;;;;;2.00;0.88;;;13.20;99.90;;;;;;4236091;28;20253;-91
2024/04/18 17:25:32;;;;;;;1.45;0.45;;;12.80;99.90;;;;;;4234955;28;20242;-93
2024/04/18 17:27:33;;;;;;;5.22;0.40;;;13.00;99.90;;;;;;4262547;27;20800;-91
2024/04/18 17:29:34;;;;;;;1.25;0.28;;;13.20;99.90;;;;;;4238880;28;20290;-92
2024/04/18 17:31:35;;;;;;;0.52;0.30;;;13.40;99.90;;;;;;4261504;27;20328;-91
2024/04/18 17:33:36;;;;;;;3.08;0.70;;;13.10;99.90;;;;;;4262698;27;20244;-92
2024/04/18 17:35:37;;;;;;;1.13;0.52;;;13.20;99.90;;;;;;4261866;27;20237;-91
2024/04/18 17:37:45;;;;;;;0.45;0.25;;;12.70;99.90;;;;;;4291383;27;20673;-91
2024/04/18 17:39:55;;;;;;;1.10;0.17;;;12.90;99.90;;;;;;4288737;27;20235;-91
2024/04/18 17:41:56;;;;;;;0.95;0.43;;;12.60;99.90;;;;;;4263594;27;20711;-91
2024/04/18 17:43:57;;;;;;;0.73;0.43;;;12.40;99.90;;;;;;4235181;28;20246;-92
2024/04/18 17:46:17;;;;;;;0.40;0.30;;;12.50;99.90;;;;;;4288791;27;20244;-91
2024/04/18 17:48:18;;;;;;;1.10;0.30;;;12.20;99.90;;;;;;4261502;27;20236;-91
2024/04/18 17:50:19;;;;;;;1.75;0.30;;;12.20;99.90;;;;;;4234671;27;20233;-92
2024/04/18 17:52:20;;;;;;;0.95;0.40;;;12.20;99.90;;;;;;4262081;27;20346;-91
2024/04/18 17:54:21;;;;;;;0.35;0.20;;;12.10;99.90;;;;;;4263698;27;20272;-91
2024/04/18 17:56:22;;;;;;;4.30;0.30;;;12.50;99.90;;;;;;4260891;27;20251;-91
2024/04/18 17:58:22;;;;;;;0.63;0.25;;;12.70;99.90;;;;;;4261468;27;20272;-91
2024/04/18 18:00:23;;;;;;;1.65;0.40;;;12.80;99.90;;;;;;4260922;27;20260;-91
2024/04/18 18:02:24;;;;;;;1.02;0.40;;;12.80;99.90;;;;;;4291971;27;20269;-92
2024/04/18 18:04:34;;;;;;;0.47;0.47;;;12.60;99.90;;;;;;4264267;27;20264;-92
2024/04/18 18:06:35;;;;;;;4.18;0.80;;;12.10;99.90;;;;;;4234202;27;20250;-91
2024/04/18 18:08:36;;;;;;;2.60;0.65;;;12.00;99.90;;;;;;4263257;27;20256;-92
2024/04/18 18:10:55;;;;;;;1.35;0.50;;;11.80;99.90;;;;;;4266077;27;20325;-91
2024/04/18 18:12:56;;;;;;;1.30;0.60;;;11.80;99.90;;;;;;4262376;27;20248;-91
2024/04/18 18:15:21;;;;;;;1.25;0.40;;;11.90;99.90;;;;;;4290682;27;20336;-90
2024/04/18 18:17:22;;;;;;;3.83;0.63;;;12.10;99.90;;;;;;4264675;27;20233;-91
2024/04/18 18:19:23;;;;;;;6.75;1.30;;;12.10;99.90;;;;;;4279410;27;20262;-91
2024/04/18 18:21:30;;;;;;;0.45;0.40;;;11.90;99.90;;;;;;4264271;27;20277;-91
2024/04/18 18:23:30;;;;;;;1.35;0.50;;;11.90;99.90;;;;;;4261065;27;20236;-92
2024/04/18 18:25:31;;;;;;;1.90;0.68;;;11.70;99.90;;;;;;4262594;27;20332;-92
2024/04/18 18:27:32;;;;;;;1.70;0.55;;;11.70;99.90;;;;;;4261685;27;20249;-92
2024/04/18 18:29:53;;;;;;;3.50;0.90;;;11.50;99.90;;;;;;4293278;27;20236;-92
2024/04/18 18:31:54;;;;;;;7.00;0.77;;;11.60;99.90;;;;;;4262490;27;20318;-94
2024/04/18 18:33:55;;;;;;;3.53;0.47;;;11.60;99.90;;;;;;4261736;27;20725;-93
2024/04/18 18:35:56;;;;;;;3.00;0.60;;;11.60;99.90;;;;;;4262793;27;20245;-94
2024/04/18 18:37:57;;;;;;;1.02;0.50;;;11.70;99.90;;;;;;4287834;27;20272;-94
2024/04/18 18:39:59;;;;;;;3.60;0.50;;;11.80;99.90;;;;;;4261408;27;20820;-93
2024/04/18 18:42:00;;;;;;;3.30;0.55;;;11.90;99.90;;;;;;4290716;27;20323;-93
2024/04/18 18:44:01;;;;;;;6.95;0.70;;;12.00;99.90;;;;;;4235018;28;20330;-94
2024/04/18 18:46:01;;;;;;;1.98;1.08;;;11.70;99.90;;;;;;4264039;27;20249;-94
2024/04/18 18:48:07;;;;;;;1.25;0.38;;;11.60;99.90;;;;;;4263996;27;20332;-94
2024/04/18 18:50:08;;;;;;;5.22;0.80;;;11.60;99.90;;;;;;4303509;27;20232;-92
2024/04/18 18:52:09;;;;;;;1.20;0.50;;;11.60;99.90;;;;;;4269727;27;20265;-95
2024/04/18 18:54:11;;;;;;;0.50;0.40;;;11.50;99.90;;;;;;4263360;27;20300;-96
2024/04/18 18:56:12;;;;;;;4.00;1.33;;;11.60;99.90;;;;;;4263990;27;20287;-93
2024/04/18 18:58:34;;;;;;;2.67;0.60;;;11.30;99.90;;;;;;4292091;27;20353;-93
2024/04/18 19:00:36;;;;;;;2.92;1.10;;;11.20;99.90;;;;;;4289611;27;20236;-94
2024/04/18 19:02:42;;;;;;;0.95;0.40;;;11.30;99.90;;;;;;4264853;27;20259;-95
2024/04/18 19:04:43;;;;;;;0.50;0.30;;;11.50;99.90;;;;;;4290465;27;20232;-94
2024/04/18 19:06:46;;;;;;;1.35;0.25;;;11.50;99.90;;;;;;4263834;27;20257;-95
2024/04/18 19:08:49;;;;;;;1.65;0.82;;;11.40;99.90;;;;;;4321802;27;20291;-93
2024/04/18 19:11:09;;;;;;;2.72;0.60;;;11.30;99.90;;;;;;4266395;27;20233;-96
2024/04/18 19:13:10;;;;;;;4.15;0.40;;;11.10;99.90;;;;;;4264299;27;20651;-94
2024/04/18 19:15:29;;;;;;;5.13;0.70;;;11.10;99.90;;;;;;4265724;27;20248;-96
2024/04/18 19:17:30;;;;;;;2.60;0.50;;;11.10;99.90;;;;;;4262050;27;20362;-94
2024/04/18 19:19:33;;;;;;;2.30;0.70;;;11.20;99.90;;;;;;4260476;27;20699;-94
2024/04/18 19:21:50;;;;;;;2.55;0.73;;;11.20;99.90;;;;;;4287851;27;20297;-94
2024/04/18 19:23:50;;;;;;;0.95;0.52;;;11.30;99.90;;;;;;4262130;27;20237;-93
2024/04/18 19:25:55;;;;;;;1.60;0.43;;;11.20;99.90;;;;;;4313982;27;20239;-94
2024/04/18 19:27:55;;;;;;;4.63;0.60;;;11.20;99.90;;;;;;4261877;27;20245;-93
2024/04/18 19:30:01;;;;;;;2.35;0.80;;;11.10;99.90;;;;;;4287445;27;20229;-93
2024/04/18 19:32:02;;;;;;;1.75;0.77;;;11.00;99.90;;;;;;4287778;27;20229;-94
2024/04/18 19:34:03;;;;;;;0.70;0.40;;;11.00;99.90;;;;;;4293304;27;20232;-94
2024/04/18 19:36:08;;;;;;;9.50;1.20;;;11.00;99.90;;;;;;4271972;27;20284;-95
2024/04/18 19:38:09;;;;;;;2.80;0.90;;;11.00;99.90;;;;;;4298548;27;20224;-94
2024/04/18 19:40:24;;;;;;;2.55;0.47;;;11.10;99.90;;;;;;4276190;27;20241;-95
2024/04/18 19:42:37;;;;;;;2.40;0.77;;;11.20;99.90;;;;;;4273479;27;20251;-95
2024/04/18 19:44:38;;;;;;;6.80;0.70;;;11.10;99.90;;;;;;4298156;27;20220;-93
2024/04/18 19:46:39;;;;;;;3.22;1.00;;;11.20;99.90;;;;;;4272106;27;20412;-94
2024/04/18 19:49:04;;;;;;;1.92;0.70;;;11.30;99.90;;;;;;4298052;27;20271;-95
2024/04/18 19:51:30;;;;;;;2.08;1.25;;;11.10;99.90;;;;;;4297638;27;20228;-94
2024/04/18 19:53:36;;;;;;;2.90;0.70;;;11.00;99.90;;;;;;4271330;27;20237;-95
2024/04/18 19:56:17;;;;;;;6.82;0.90;;;11.00;99.90;;;;;;4327730;27;20239;-94
2024/04/18 19:58:19;;;;;;;4.65;1.10;;;11.00;99.90;;;;;;4297387;27;20255;-94
2024/04/18 20:00:20;;;;;;;1.48;0.60;;;11.10;99.90;;;;;;4271978;27;20256;-94
2024/04/18 20:02:20;;;;;;;2.40;0.85;;;11.20;99.90;;;;;;4326186;27;20223;-96
2024/04/18 20:04:21;;;;;;;5.03;0.98;;;11.20;99.90;;;;;;4274267;27;20221;-95
2024/04/18 20:06:25;;;;;;;1.67;0.90;;;11.20;99.90;;;;;;4273665;27;20245;-93
2024/04/18 20:08:28;;;;;;;1.88;0.80;;;11.20;99.90;;;;;;4298911;27;20251;-94
2024/04/18 20:10:35;;;;;;;3.25;0.80;;;11.20;99.90;;;;;;4271166;27;20233;-94
2024/04/18 20:12:43;;;;;;;2.20;1.10;;;11.10;99.90;;;;;;4269686;27;20308;-95
2024/04/18 20:14:47;;;;;;;3.05;0.90;;;11.20;99.90;;;;;;4298999;27;20258;-94
2024/04/18 20:16:49;;;;;;;1.27;0.60;;;11.20;99.90;;;;;;4273090;27;20280;-94